In Rescue
 
Open Full Screen Window  High Contrast Mode
Wind Gusting 00 knots
03
January 17, 2021 3:04 PM EST
Present Weather: Light Snow
Weather Information
Wind Direction
  240 °
Wind Speed
  03 kt (3 mph)
Wind Gust
  00 kt (0 mph)
Altimeter
29.66 in
Visibility
2 SM
Temperature
01° C
34° F
Dewpoint
00° C
32° F
Humidity
93%
Sky Condition
Overcast @ 700 ft
IFR

METAR KLWA 172004Z AUTO 24003KT 2SM -SN OVC007 01/00 A2966 RMK AO2 T00100000

FAA Disclaimer: The data displayed is for advisory purposes only and is not to be used for flight planning or operations.